Weather History for Mora, MN

Change the Weather History Date:

Saturday, November 1, 2014

  Actual Average Record
Temperature  
Mean Temperature 27 °F -  
Max Temperature 37 °F 48 °F 70 °F (1944)
Min Temperature 17 °F 27 °F -2 °F (1984)
Degree Days  
Heating Degree Days 38    
Moisture  
Dew Point 19 °F    
Average Humidity 69    
Maximum Humidity 93    
Minimum Humidity 45    
Precipitation  
Precipitation 0.00 in - - ()
Sea Level Pressure  
Sea Level Pressure 30.34 in    
Wind  
Wind Speed 3 mph (SSE)    
Max Wind Speed 14 mph    
Max Gust Speed 18 mph    
Visibility 10 miles    
Events      
Averages and records for this station are not official NWS values.
T = Trace of Precipitation, MM = Missing Value Source: NWS Daily Summary

Daily Weather History Graph

Daily Weather History Graph

Search for Another Location

Airport:

Trip Planner

Search our weather history database for the weather conditions in past years. The results will help you decide how hot, cold, wet, or windy it might be!

Date:

Astronomy

Nov. 01, 2014 Rise Set
Actual Time 7:53 AM CDT 5:59 PM CDT
Civil Twilight 7:22 AM CDT 6:30 PM CDT
Nautical Twilight 6:47 AM CDT 7:05 PM CDT
Astronomical Twilight 6:12 AM CDT 7:40 PM CDT
Moon 3:10 PM CDT (11/1) 1:30 AM CDT (11/1)
Length of Visible Light 11h 08m
Length of Day
10h 05m
Waxing Gibbous, 68% of the Moon is Illuminated
Nov 1
Waxing Gibbous
Nov 6
Full
Nov 14
Last Quarter
Nov 22
New
Nov 29
First Quarter

Hourly Weather History & Observations

Time (CDT) Temp. Windchill Dew Point Humidity Pressure Visibility Wind Dir Wind Speed Gust Speed Precip Events Conditions
12:15 AM 19.4 °F - 17.6 °F 93% 30.47 in 10.0 mi Calm Calm - N/A   Clear
12:35 AM 19.4 °F - 17.6 °F 93% 30.48 in 10.0 mi Calm Calm - N/A   Clear
12:55 AM 19.4 °F - 17.6 °F 93% 30.48 in 10.0 mi Calm Calm - N/A   Clear
1:14 AM 19.4 °F - 17.6 °F 93% 30.47 in 10.0 mi Calm Calm - N/A   Clear
1:35 AM 19.4 °F - 15.8 °F 86% 30.47 in 10.0 mi Calm Calm - N/A   Clear
1:55 AM 17.6 °F - 15.8 °F 93% 30.46 in 10.0 mi Calm Calm - N/A   Clear
2:15 AM 17.6 °F - 15.8 °F 93% 30.46 in 10.0 mi Calm Calm - N/A   Clear
2:35 AM 17.6 °F - 15.8 °F 93% 30.46 in 10.0 mi Calm Calm - N/A   Clear
2:55 AM 17.6 °F - 15.8 °F 93% 30.45 in 10.0 mi Calm Calm - N/A   Clear
3:15 AM 17.6 °F - 14.0 °F 86% 30.45 in 10.0 mi Calm Calm - N/A   Clear
3:34 AM 17.6 °F - 14.0 °F 86% 30.45 in 10.0 mi Calm Calm - N/A   Clear
3:55 AM 17.6 °F - 14.0 °F 86% 30.45 in 10.0 mi Calm Calm - N/A   Clear
4:15 AM 17.6 °F - 14.0 °F 86% 30.44 in 10.0 mi Calm Calm - N/A   Clear
4:35 AM 17.6 °F - 14.0 °F 86% 30.44 in 10.0 mi Calm Calm - N/A   Clear
4:55 AM 17.6 °F - 14.0 °F 86% 30.44 in 10.0 mi Calm Calm - N/A   Clear
5:15 AM 17.6 °F - 14.0 °F 86% 30.44 in 10.0 mi Calm Calm - N/A   Clear
5:35 AM 17.6 °F - 14.0 °F 86% 30.44 in 10.0 mi Calm Calm - N/A   Clear
5:55 AM 17.6 °F - 14.0 °F 86% 30.44 in 10.0 mi Calm Calm - N/A   Clear
6:15 AM 19.4 °F - 17.6 °F 93% 30.44 in 10.0 mi Calm Calm - N/A   Clear
6:35 AM 21.2 °F - 19.4 °F 93% 30.44 in 10.0 mi Calm Calm - N/A   Clear
6:54 AM 23.0 °F - 19.4 °F 86% 30.44 in 10.0 mi Calm Calm - N/A   Clear
7:15 AM 24.8 °F 20.5 °F 21.2 °F 86% 30.44 in 10.0 mi SSE 3.5 mph - N/A   Clear
7:35 AM 24.8 °F - 19.4 °F 80% 30.44 in 10.0 mi Calm Calm - N/A   Clear
7:55 AM 24.8 °F 20.5 °F 19.4 °F 80% 30.44 in 10.0 mi South 3.5 mph - N/A   Clear
8:15 AM 26.6 °F 22.6 °F 21.2 °F 80% 30.43 in 10.0 mi South 3.5 mph - N/A   Clear
8:35 AM 26.6 °F 22.6 °F 21.2 °F 80% 30.43 in 10.0 mi SSE 3.5 mph - N/A   Clear
8:55 AM 26.6 °F 21.2 °F 21.2 °F 80% 30.43 in 10.0 mi SSE 4.6 mph - N/A   Clear
9:15 AM 26.6 °F 21.2 °F 21.2 °F 80% 30.43 in 10.0 mi South 4.6 mph - N/A   Clear
9:35 AM 28.4 °F 21.2 °F 21.2 °F 74% 30.42 in 10.0 mi SSE 6.9 mph - N/A   Clear
9:55 AM 30.2 °F 23.4 °F 23.0 °F 75% 30.41 in 10.0 mi South 6.9 mph - N/A   Clear
10:15 AM 30.2 °F 24.3 °F 23.0 °F 75% 30.41 in 10.0 mi South 5.8 mph - N/A   Clear
10:35 AM 32.0 °F 24.8 °F 23.0 °F 69% 30.41 in 10.0 mi South 8.1 mph - N/A   Clear
10:55 AM 32.0 °F 24.8 °F 23.0 °F 69% 30.41 in 10.0 mi South 8.1 mph - N/A   Clear
11:15 AM 32.0 °F 25.6 °F 21.2 °F 64% 30.40 in 10.0 mi SSE 6.9 mph - N/A   Clear
11:35 AM 32.0 °F 23.6 °F 21.2 °F 64% 30.39 in 10.0 mi South 10.4 mph - N/A   Clear
11:55 AM 33.8 °F 25.8 °F 21.2 °F 60% 30.39 in 10.0 mi South 10.4 mph - N/A   Clear
12:15 PM 33.8 °F 26.4 °F 21.2 °F 60% 30.38 in 10.0 mi South 9.2 mph - N/A   Clear
12:35 PM 35.6 °F 27.1 °F 21.2 °F 56% 30.37 in 10.0 mi South 12.7 mph - N/A   Clear
12:55 PM 35.6 °F 27.5 °F 21.2 °F 56% 30.36 in 10.0 mi South 11.5 mph - N/A   Clear
1:15 PM 35.6 °F 28.6 °F 19.4 °F 52% 30.34 in 10.0 mi SSE 9.2 mph 17.3 mph N/A   Clear
1:35 PM 35.6 °F 29.2 °F 19.4 °F 52% 30.34 in 10.0 mi SSE 8.1 mph - N/A   Clear
1:55 PM 37.4 °F 29.8 °F 19.4 °F 48% 30.33 in 10.0 mi South 11.5 mph - N/A   Clear
2:15 PM 35.6 °F 27.5 °F 17.6 °F 48% 30.32 in 10.0 mi South 11.5 mph 16.1 mph N/A   Clear
2:35 PM 37.4 °F 29.3 °F 17.6 °F 45% 30.31 in 10.0 mi South 12.7 mph 17.3 mph N/A   Clear
2:54 PM 37.4 °F 29.8 °F 19.4 °F 48% 30.30 in 10.0 mi South 11.5 mph 16.1 mph N/A   Clear
3:15 PM 37.4 °F 30.8 °F 17.6 °F 45% 30.29 in 10.0 mi SSE 9.2 mph 18.4 mph N/A   Clear
3:35 PM 37.4 °F 28.9 °F 17.6 °F 45% 30.27 in 10.0 mi South 13.8 mph 17.3 mph N/A   Clear
3:55 PM 37.4 °F 29.8 °F 19.4 °F 48% 30.27 in 10.0 mi SSE 11.5 mph - N/A   Clear
4:15 PM 37.4 °F 30.3 °F 19.4 °F 48% 30.26 in 10.0 mi South 10.4 mph 18.4 mph N/A   Clear
4:35 PM 37.4 °F 31.4 °F 19.4 °F 48% 30.25 in 10.0 mi SSE 8.1 mph - N/A   Clear
4:55 PM 37.4 °F 32.1 °F 19.4 °F 48% 30.25 in 10.0 mi SSE 6.9 mph - N/A   Clear
5:14 PM 37.4 °F 31.4 °F 19.4 °F 48% 30.24 in 10.0 mi SSE 8.1 mph - N/A   Clear
5:35 PM 35.6 °F 29.2 °F 19.4 °F 52% 30.24 in 10.0 mi SSE 8.1 mph - N/A   Clear
5:55 PM 35.6 °F 29.9 °F 19.4 °F 52% 30.24 in 10.0 mi SSE 6.9 mph - N/A   Clear
6:15 PM 35.6 °F 29.9 °F 19.4 °F 52% 30.24 in 10.0 mi SSE 6.9 mph - N/A   Clear
6:35 PM 35.6 °F 30.7 °F 21.2 °F 56% 30.23 in 10.0 mi SE 5.8 mph - N/A   Clear
6:55 PM 33.8 °F 28.6 °F 19.4 °F 56% 30.22 in 10.0 mi SE 5.8 mph - N/A   Clear
7:15 PM 33.8 °F 28.6 °F 21.2 °F 60% 30.22 in 10.0 mi SE 5.8 mph - N/A   Clear
7:35 PM 33.8 °F 29.6 °F 19.4 °F 56% 30.21 in 10.0 mi SE 4.6 mph - N/A   Clear
7:55 PM 33.8 °F 29.6 °F 21.2 °F 60% 30.21 in 10.0 mi SE 4.6 mph - N/A   Clear
8:15 PM 32.0 °F 26.4 °F 21.2 °F 64% 30.20 in 10.0 mi SE 5.8 mph - N/A   Clear
8:35 PM 32.0 °F 26.4 °F 21.2 °F 64% 30.19 in 10.0 mi SE 5.8 mph - N/A   Clear
8:55 PM 32.0 °F 27.5 °F 21.2 °F 64% 30.19 in 10.0 mi SE 4.6 mph - N/A   Clear
9:15 PM 33.8 °F 28.6 °F 21.2 °F 60% 30.18 in 10.0 mi SSE 5.8 mph - N/A   Clear
9:35 PM 33.8 °F 27.7 °F 21.2 °F 60% 30.18 in 10.0 mi SSE 6.9 mph - N/A   Clear
9:55 PM 33.8 °F 27.7 °F 19.4 °F 56% 30.18 in 10.0 mi SSE 6.9 mph - N/A   Clear
10:15 PM 33.8 °F 27.7 °F 19.4 °F 56% 30.17 in 10.0 mi SSE 6.9 mph - N/A   Clear
10:35 PM 33.8 °F 27.0 °F 19.4 °F 56% 30.17 in 10.0 mi SSE 8.1 mph - N/A   Clear
10:55 PM 33.8 °F 28.6 °F 19.4 °F 56% 30.17 in 10.0 mi South 5.8 mph - N/A   Clear
11:15 PM 33.8 °F 27.7 °F 19.4 °F 56% 30.18 in 10.0 mi South 6.9 mph - N/A   Clear
11:35 PM 33.8 °F 28.6 °F 19.4 °F 56% 30.18 in 10.0 mi South 5.8 mph - N/A   Clear
11:54 PM 33.8 °F 28.6 °F 19.4 °F 56% 30.17 in 10.0 mi SSE 5.8 mph - N/A   Clear